createdAt,value
2017-11-17T00:00:40.343Z,9.20
2017-11-17T00:03:07.832Z,9.20
2017-11-17T00:05:35.365Z,9.10
2017-11-17T00:08:02.862Z,9.10
2017-11-17T00:10:30.362Z,9.20
2017-11-17T00:12:57.910Z,9.20
2017-11-17T00:15:25.407Z,9.10
2017-11-17T00:17:52.905Z,9.10
2017-11-17T00:20:21.197Z,9.20
2017-11-17T00:22:48.689Z,9.20
2017-11-17T00:25:16.185Z,9.30
2017-11-17T00:27:43.739Z,9.30
2017-11-17T00:30:11.241Z,9.20
2017-11-17T00:32:38.734Z,9.20
2017-11-17T00:35:06.266Z,9.20
2017-11-17T00:37:33.758Z,9.20
2017-11-17T00:40:01.266Z,9.20
2017-11-17T00:42:28.792Z,9.30
2017-11-17T00:44:56.301Z,9.20
2017-11-17T00:47:24.585Z,9.20
2017-11-17T00:49:52.869Z,9.20
2017-11-17T00:52:20.361Z,9.20
2017-11-17T00:54:48.614Z,9.20
2017-11-17T00:57:16.160Z,9.20
2017-11-17T00:59:43.650Z,9.20
2017-11-17T01:02:11.142Z,9.20
2017-11-17T01:04:39.431Z,9.20
2017-11-17T01:07:06.920Z,9.20
2017-11-17T01:09:34.425Z,9.10
2017-11-17T01:12:01.953Z,9.10
2017-11-17T01:14:30.224Z,9.00
2017-11-17T01:16:57.718Z,9.00
2017-11-17T01:19:26.069Z,9.10
2017-11-17T01:21:53.564Z,9.10
2017-11-17T01:24:21.130Z,9.10
2017-11-17T01:26:48.644Z,9.10
2017-11-17T01:29:16.137Z,9.10
2017-11-17T01:31:43.625Z,9.10
2017-11-17T01:34:11.183Z,9.10
2017-11-17T01:36:38.690Z,9.20
2017-11-17T01:39:06.181Z,9.20
2017-11-17T01:41:33.885Z,9.10
2017-11-17T01:44:01.377Z,9.20
2017-11-17T01:46:28.870Z,9.10
2017-11-17T01:48:56.384Z,9.10
2017-11-17T01:51:23.885Z,9.10
2017-11-17T01:53:51.377Z,9.10
2017-11-17T01:56:19.038Z,9.20
2017-11-17T01:58:46.530Z,9.10
2017-11-17T02:01:14.030Z,9.10
2017-11-17T02:03:41.557Z,9.00
2017-11-17T02:06:09.060Z,9.00
2017-11-17T02:08:37.316Z,9.00
2017-11-17T02:11:05.026Z,9.00
2017-11-17T02:13:32.537Z,9.00
2017-11-17T02:16:00.029Z,9.00
2017-11-17T02:18:27.540Z,9.00
2017-11-17T02:20:55.805Z,9.00
2017-11-17T02:23:23.314Z,9.00
2017-11-17T02:25:50.917Z,9.00
2017-11-17T02:28:18.421Z,9.10
2017-11-17T02:30:45.921Z,9.00
2017-11-17T02:33:13.481Z,9.10
2017-11-17T02:35:41.786Z,9.00
2017-11-17T02:38:09.290Z,9.00
2017-11-17T02:40:36.899Z,9.00
2017-11-17T02:43:04.394Z,9.00
2017-11-17T02:45:31.881Z,9.00
2017-11-17T02:47:59.410Z,9.00
2017-11-17T02:50:26.905Z,9.00
2017-11-17T02:52:55.174Z,9.10
2017-11-17T02:55:22.703Z,9.10
2017-11-17T02:57:50.214Z,9.10
2017-11-17T03:00:18.467Z,9.20
2017-11-17T03:02:45.997Z,9.10
2017-11-17T03:05:13.505Z,9.10
2017-11-17T03:07:41.011Z,9.00
2017-11-17T03:10:08.527Z,9.00
2017-11-17T03:12:36.030Z,9.00
2017-11-17T03:15:03.557Z,8.90
2017-11-17T03:17:31.097Z,8.90
2017-11-17T03:19:58.598Z,8.90
2017-11-17T03:22:26.152Z,8.90
2017-11-17T03:24:54.432Z,8.90
2017-11-17T03:27:22.709Z,8.80
2017-11-17T03:29:50.210Z,8.80
2017-11-17T03:32:17.757Z,8.80
2017-11-17T03:34:46.029Z,8.70
2017-11-17T03:37:13.555Z,8.70
2017-11-17T03:39:41.082Z,8.80
2017-11-17T03:42:08.568Z,8.70
2017-11-17T03:44:36.050Z,8.70
2017-11-17T03:47:04.359Z,8.70
2017-11-17T03:49:31.853Z,8.70
2017-11-17T03:51:59.437Z,8.70
2017-11-17T03:54:26.940Z,8.60
2017-11-17T03:56:55.193Z,8.60
2017-11-17T03:59:22.725Z,8.60
2017-11-17T04:01:50.257Z,8.60
2017-11-17T04:04:17.752Z,8.60
2017-11-17T04:06:46.030Z,8.50
2017-11-17T04:09:13.539Z,8.40
2017-11-17T04:11:41.027Z,8.50
2017-11-17T04:14:08.524Z,8.50
2017-11-17T04:16:36.049Z,8.50
2017-11-17T04:19:03.540Z,8.50
2017-11-17T04:21:31.046Z,8.50
2017-11-17T04:23:58.558Z,8.60
2017-11-17T04:26:26.075Z,8.50
2017-11-17T04:28:53.585Z,8.50
2017-11-17T04:31:21.849Z,8.40
2017-11-17T04:33:49.431Z,8.40
2017-11-17T04:36:17.680Z,8.40
2017-11-17T04:38:45.208Z,8.40
2017-11-17T04:41:13.461Z,8.40
2017-11-17T04:43:40.963Z,8.40
2017-11-17T04:46:10.668Z,8.30
2017-11-17T04:48:38.936Z,8.30
2017-11-17T04:51:06.422Z,8.30
2017-11-17T04:53:33.976Z,8.30
2017-11-17T04:56:01.478Z,8.30
2017-11-17T04:58:29.769Z,8.20
2017-11-17T05:00:58.049Z,8.20
2017-11-17T05:03:26.319Z,8.20
2017-11-17T05:05:53.802Z,8.20
2017-11-17T05:08:21.375Z,8.20
2017-11-17T05:10:49.658Z,8.10
2017-11-17T05:13:17.145Z,8.10
2017-11-17T05:15:45.509Z,8.00
2017-11-17T05:18:12.997Z,8.00
2017-11-17T05:20:40.478Z,8.00
2017-11-17T05:23:08.766Z,8.00
2017-11-17T05:25:37.037Z,8.10
2017-11-17T05:28:04.520Z,8.10
2017-11-17T05:30:32.823Z,8.10
2017-11-17T05:33:01.065Z,8.10
2017-11-17T05:35:28.545Z,8.10
2017-11-17T05:37:56.163Z,8.10
2017-11-17T05:40:23.651Z,8.10
2017-11-17T05:42:51.138Z,8.10
2017-11-17T05:45:18.645Z,8.00
2017-11-17T05:47:46.144Z,8.00
2017-11-17T05:50:14.399Z,8.00
2017-11-17T05:52:41.919Z,8.00
2017-11-17T05:55:09.408Z,7.90
2017-11-17T05:57:36.893Z,7.90
2017-11-17T06:00:04.419Z,7.90
2017-11-17T06:02:31.919Z,7.90
2017-11-17T06:04:59.408Z,7.90
2017-11-17T06:07:26.923Z,7.90
2017-11-17T06:09:55.175Z,7.80
2017-11-17T06:12:22.665Z,7.80
2017-11-17T06:14:50.169Z,7.80
2017-11-17T06:17:17.786Z,7.90
2017-11-17T06:19:45.287Z,8.00
2017-11-17T06:22:13.566Z,8.00
2017-11-17T06:24:41.078Z,7.90
2017-11-17T06:27:08.572Z,7.90
2017-11-17T06:29:36.090Z,7.80
2017-11-17T06:32:04.355Z,7.80
2017-11-17T06:34:31.877Z,7.80
2017-11-17T06:36:59.409Z,7.70
2017-11-17T06:39:26.985Z,7.60
2017-11-17T06:41:55.286Z,7.70
2017-11-17T06:44:23.029Z,7.60
2017-11-17T06:46:50.520Z,7.60
2017-11-17T06:49:18.005Z,7.60
2017-11-17T06:51:46.309Z,7.50
2017-11-17T06:54:13.797Z,7.50
2017-11-17T06:56:41.292Z,7.40
2017-11-17T06:59:10.629Z,7.40
2017-11-17T07:01:38.116Z,7.40
2017-11-17T07:04:05.608Z,7.40
2017-11-17T07:06:33.128Z,7.50
2017-11-17T07:09:00.648Z,7.60
2017-11-17T07:11:28.130Z,7.50
2017-11-17T07:13:55.660Z,7.60
2017-11-17T07:16:23.154Z,7.60
2017-11-17T07:18:50.673Z,7.60
2017-11-17T07:21:18.180Z,7.50
2017-11-17T07:23:46.424Z,7.60
2017-11-17T07:26:13.917Z,7.60
2017-11-17T07:28:41.549Z,7.60
2017-11-17T07:31:09.061Z,7.50
2017-11-17T07:33:36.549Z,7.50
2017-11-17T07:36:04.048Z,7.50
2017-11-17T07:38:31.548Z,7.50
2017-11-17T07:40:59.049Z,7.50
2017-11-17T07:43:26.564Z,7.50
2017-11-17T07:45:54.052Z,7.50
2017-11-17T07:48:21.556Z,7.50
2017-11-17T07:50:49.088Z,7.50
2017-11-17T07:53:16.576Z,7.60
2017-11-17T07:55:44.058Z,7.50
2017-11-17T07:58:11.582Z,7.40
2017-11-17T08:00:39.073Z,7.50
2017-11-17T08:03:06.565Z,7.50
2017-11-17T08:05:34.111Z,7.40
2017-11-17T08:08:01.593Z,7.50
2017-11-17T08:10:29.098Z,7.40
2017-11-17T08:12:56.608Z,7.40
2017-11-17T08:15:24.108Z,7.40
2017-11-17T08:18:04.216Z,7.40
2017-11-17T08:20:31.704Z,7.30
2017-11-17T08:22:59.953Z,7.20
2017-11-17T08:25:27.514Z,7.20
2017-11-17T08:27:55.008Z,7.30
2017-11-17T08:30:22.524Z,7.30
2017-11-17T08:32:50.049Z,7.40
2017-11-17T08:35:17.545Z,7.40
2017-11-17T08:37:45.794Z,7.50
2017-11-17T08:40:13.312Z,7.60
2017-11-17T08:42:40.809Z,7.60
2017-11-17T08:45:08.302Z,7.60
2017-11-17T08:47:35.824Z,7.60
2017-11-17T08:50:03.319Z,7.50
2017-11-17T08:52:30.808Z,7.60
2017-11-17T08:54:58.311Z,7.60
2017-11-17T08:57:25.798Z,7.50
2017-11-17T08:59:54.064Z,7.40
2017-11-17T09:02:21.581Z,7.40
2017-11-17T09:04:49.065Z,7.40
2017-11-17T09:07:16.557Z,7.50
2017-11-17T09:09:44.112Z,7.40
2017-11-17T09:12:11.598Z,7.50
2017-11-17T09:14:39.085Z,7.40
2017-11-17T09:17:06.593Z,7.40
2017-11-17T09:19:34.087Z,7.50
2017-11-17T09:22:01.584Z,7.60
2017-11-17T09:24:29.089Z,7.80
2017-11-17T09:26:57.340Z,8.10
2017-11-17T09:29:24.845Z,8.00
2017-11-17T09:31:53.112Z,8.10
2017-11-17T09:34:20.605Z,8.10
2017-11-17T09:36:48.856Z,8.10
2017-11-17T09:39:16.367Z,8.10
2017-11-17T09:41:44.709Z,8.00
2017-11-17T09:44:12.200Z,8.00
2017-11-17T09:46:39.731Z,7.80
2017-11-17T09:49:07.221Z,7.70
2017-11-17T09:51:34.706Z,7.80
2017-11-17T09:54:02.213Z,7.80
2017-11-17T09:56:30.617Z,7.80
2017-11-17T09:58:58.109Z,7.80
2017-11-17T10:01:25.618Z,8.00
2017-11-17T10:03:53.117Z,8.00
2017-11-17T10:06:21.369Z,8.20
2017-11-17T10:08:48.886Z,8.20
2017-11-17T10:11:17.141Z,8.30
2017-11-17T10:13:44.629Z,8.20
2017-11-17T10:16:12.914Z,8.10
2017-11-17T10:18:40.393Z,8.10
2017-11-17T10:21:08.653Z,8.30
2017-11-17T10:23:36.175Z,8.30
2017-11-17T10:26:03.652Z,8.20
2017-11-17T10:28:31.136Z,8.10
2017-11-17T10:30:58.659Z,8.20
2017-11-17T10:33:26.904Z,8.00
2017-11-17T10:35:54.388Z,8.10
2017-11-17T10:38:21.897Z,8.00
2017-11-17T10:40:50.146Z,8.10
2017-11-17T10:43:17.634Z,8.10
2017-11-17T10:45:45.156Z,8.20
2017-11-17T10:48:12.650Z,8.20
2017-11-17T10:50:40.137Z,8.20
2017-11-17T10:53:07.650Z,8.30
2017-11-17T10:55:35.133Z,8.30
2017-11-17T10:58:02.608Z,8.50
2017-11-17T11:00:30.108Z,8.50
2017-11-17T11:02:57.595Z,8.70
2017-11-17T11:05:25.076Z,8.70
2017-11-17T11:07:52.593Z,8.60
2017-11-17T11:10:20.078Z,8.70
2017-11-17T11:12:47.607Z,8.70
2017-11-17T11:15:15.869Z,8.70
2017-11-17T11:17:43.363Z,8.70
2017-11-17T11:20:11.631Z,8.80
2017-11-17T11:22:39.148Z,8.70
2017-11-17T11:25:06.634Z,8.80
2017-11-17T11:27:34.112Z,8.80
2017-11-17T11:30:01.613Z,8.80
2017-11-17T11:32:29.086Z,8.70
2017-11-17T11:34:56.566Z,8.70
2017-11-17T11:37:24.840Z,8.50
2017-11-17T11:39:52.332Z,8.50
2017-11-17T11:42:20.579Z,8.50
2017-11-17T11:44:48.096Z,8.50
2017-11-17T11:47:15.581Z,8.60
2017-11-17T11:49:43.061Z,8.60
2017-11-17T11:52:10.570Z,8.70
2017-11-17T11:54:38.052Z,8.60
2017-11-17T11:57:05.537Z,8.60
2017-11-17T11:59:33.817Z,8.70
2017-11-17T12:02:02.109Z,8.80
2017-11-17T12:04:30.377Z,9.10
2017-11-17T12:06:57.890Z,9.00
2017-11-17T12:09:26.145Z,9.30
2017-11-17T12:11:53.635Z,9.30
2017-11-17T12:14:21.902Z,9.40
2017-11-17T12:16:49.407Z,9.40
2017-11-17T12:19:17.657Z,9.30
2017-11-17T12:21:45.165Z,9.30
2017-11-17T12:24:12.659Z,9.20
2017-11-17T12:26:40.132Z,9.20
2017-11-17T12:29:07.636Z,9.10
2017-11-17T12:31:35.125Z,8.90
2017-11-17T12:34:02.610Z,8.90
2017-11-17T12:36:30.893Z,8.90
2017-11-17T12:38:59.161Z,9.00
2017-11-17T12:41:26.637Z,9.00
2017-11-17T12:43:54.144Z,8.90
2017-11-17T12:46:21.641Z,8.80
2017-11-17T12:48:49.129Z,8.90
2017-11-17T12:51:16.638Z,9.00
2017-11-17T12:53:44.885Z,9.20
2017-11-17T12:56:12.374Z,9.20
2017-11-17T12:58:39.901Z,9.40
2017-11-17T13:01:07.380Z,9.40
2017-11-17T13:03:34.905Z,9.50
2017-11-17T13:06:02.432Z,9.50
2017-11-17T13:08:29.917Z,9.70
2017-11-17T13:10:57.417Z,9.70
2017-11-17T13:13:25.698Z,9.60
2017-11-17T13:15:53.195Z,9.50
2017-11-17T13:18:20.677Z,9.50
2017-11-17T13:20:48.193Z,9.40
2017-11-17T13:23:15.681Z,9.40
2017-11-17T13:25:43.941Z,9.30
2017-11-17T13:28:11.453Z,9.30
2017-11-17T13:30:38.956Z,9.30
2017-11-17T13:33:06.429Z,9.30
2017-11-17T13:35:33.920Z,9.20
2017-11-17T13:38:01.402Z,9.20
2017-11-17T13:40:28.884Z,9.10
2017-11-17T13:42:57.161Z,9.00
2017-11-17T13:45:24.637Z,9.00
2017-11-17T13:47:52.465Z,9.10
2017-11-17T13:50:20.012Z,9.10
2017-11-17T13:52:48.268Z,9.10
2017-11-17T13:55:15.778Z,9.10
2017-11-17T13:57:43.295Z,9.00
2017-11-17T14:00:10.784Z,8.90
2017-11-17T14:02:38.274Z,9.00
2017-11-17T14:05:06.551Z,9.00
2017-11-17T14:07:34.032Z,9.00
2017-11-17T14:10:02.296Z,9.20
2017-11-17T14:12:29.876Z,9.20
2017-11-17T14:14:57.366Z,9.30
2017-11-17T14:17:25.620Z,9.20
2017-11-17T14:19:53.129Z,9.20
2017-11-17T14:22:21.394Z,9.30
2017-11-17T14:24:48.905Z,9.20
2017-11-17T14:27:16.408Z,9.20
2017-11-17T14:29:43.897Z,9.20
2017-11-17T14:32:11.373Z,9.20
2017-11-17T14:34:38.883Z,9.10
2017-11-17T14:37:07.116Z,9.00
2017-11-17T14:39:34.648Z,8.90
2017-11-17T14:42:02.149Z,8.90
2017-11-17T14:44:29.632Z,8.90
2017-11-17T14:46:57.116Z,8.80
2017-11-17T14:49:24.614Z,8.80
2017-11-17T14:51:52.119Z,8.80
2017-11-17T14:54:19.610Z,8.80
2017-11-17T14:56:47.120Z,8.60
2017-11-17T14:59:14.605Z,8.50
2017-11-17T15:01:42.848Z,8.30
2017-11-17T15:04:11.134Z,8.30
2017-11-17T15:06:38.664Z,8.30
2017-11-17T15:09:06.180Z,8.30
2017-11-17T15:11:33.748Z,8.30
2017-11-17T15:14:01.261Z,8.20
2017-11-17T15:16:28.782Z,8.20
2017-11-17T15:18:56.342Z,8.20
2017-11-17T15:21:23.925Z,8.20
2017-11-17T15:23:52.201Z,7.90
2017-11-17T15:26:19.766Z,7.90
2017-11-17T15:28:47.281Z,8.00
2017-11-17T15:31:15.608Z,7.80
2017-11-17T15:33:43.152Z,7.70
2017-11-17T15:36:10.667Z,7.60
2017-11-17T15:38:38.177Z,7.60
2017-11-17T15:41:05.713Z,7.50
2017-11-17T15:43:33.989Z,7.30
2017-11-17T15:46:02.265Z,7.10
2017-11-17T15:48:29.812Z,7.10
2017-11-17T15:50:57.305Z,7.00
2017-11-17T15:53:24.776Z,6.80
2017-11-17T15:55:52.370Z,6.80
2017-11-17T15:58:19.861Z,6.60
2017-11-17T16:00:47.388Z,6.60
2017-11-17T16:03:14.943Z,6.60
2017-11-17T16:05:42.471Z,6.50
2017-11-17T16:08:09.992Z,6.40
2017-11-17T16:10:38.262Z,6.30
2017-11-17T16:13:06.540Z,6.30
2017-11-17T16:15:34.079Z,6.30
2017-11-17T16:18:02.383Z,6.10
2017-11-17T16:20:29.935Z,6.10
2017-11-17T16:22:57.444Z,6.10
2017-11-17T16:25:25.034Z,6.10
2017-11-17T16:27:53.305Z,6.10
2017-11-17T16:30:21.969Z,6.10
2017-11-17T16:32:49.507Z,6.00
2017-11-17T16:35:17.371Z,5.90
2017-11-17T16:37:46.249Z,5.90
2017-11-17T16:40:14.825Z,5.80
2017-11-17T16:42:42.401Z,5.80
2017-11-17T16:45:09.909Z,5.90
2017-11-17T16:47:38.635Z,5.80
2017-11-17T16:50:06.123Z,5.70
2017-11-17T16:52:33.615Z,5.70
2017-11-17T16:55:01.169Z,5.70
2017-11-17T16:57:28.699Z,5.60
2017-11-17T16:59:56.253Z,5.60
2017-11-17T17:02:23.787Z,5.50
2017-11-17T17:04:51.340Z,5.50
2017-11-17T17:07:18.843Z,5.50
2017-11-17T17:09:47.143Z,5.40
2017-11-17T17:12:14.651Z,5.40
2017-11-17T17:14:43.192Z,5.30
2017-11-17T17:17:12.049Z,5.40
2017-11-17T17:19:39.568Z,5.30
2017-11-17T17:22:07.970Z,5.30
2017-11-17T17:24:35.502Z,5.30
2017-11-17T17:27:03.069Z,5.00
2017-11-17T17:29:30.584Z,4.70
2017-11-17T17:31:58.818Z,4.50
2017-11-17T17:34:28.149Z,4.30
2017-11-17T17:36:55.687Z,4.30
2017-11-17T17:39:24.016Z,4.50
2017-11-17T17:41:51.571Z,4.50
2017-11-17T17:44:19.077Z,4.50
2017-11-17T17:46:47.373Z,4.60
2017-11-17T17:49:14.913Z,4.50
2017-11-17T17:51:42.478Z,4.60
2017-11-17T17:54:10.039Z,4.60
2017-11-17T17:56:37.534Z,4.50
2017-11-17T17:59:05.054Z,4.50
2017-11-17T18:01:32.603Z,4.40
2017-11-17T18:04:01.509Z,4.20
2017-11-17T18:06:30.198Z,4.30
2017-11-17T18:08:57.703Z,4.30
2017-11-17T18:11:25.256Z,4.30
2017-11-17T18:13:53.722Z,4.30
2017-11-17T18:16:28.563Z,4.30
2017-11-17T18:18:57.088Z,4.30
2017-11-17T18:21:24.906Z,4.20
2017-11-17T18:23:54.331Z,4.00
2017-11-17T18:29:19.485Z,4.00
2017-11-17T18:31:46.956Z,3.90
2017-11-17T18:34:14.495Z,3.70
2017-11-17T18:36:42.752Z,3.50
2017-11-17T18:39:11.036Z,3.60
2017-11-17T18:41:38.532Z,3.50
2017-11-17T18:44:06.065Z,3.60
2017-11-17T18:46:33.599Z,3.70
2017-11-17T18:49:01.103Z,3.50
2017-11-17T18:51:28.937Z,3.50
2017-11-17T18:53:56.420Z,3.50
2017-11-17T18:56:23.976Z,3.50
2017-11-17T18:58:51.487Z,3.50
2017-11-17T19:01:18.939Z,3.30
2017-11-17T19:03:46.442Z,3.30
2017-11-17T19:06:13.967Z,3.20
2017-11-17T19:08:41.493Z,3.10
2017-11-17T19:11:09.018Z,3.20
2017-11-17T19:13:36.501Z,3.20
2017-11-17T19:16:03.990Z,3.30
2017-11-17T19:18:31.497Z,3.30
2017-11-17T19:21:01.332Z,3.30
2017-11-17T19:23:28.844Z,3.20
2017-11-17T19:25:56.334Z,3.30
2017-11-17T19:28:23.863Z,3.30
2017-11-17T19:30:51.344Z,3.20
2017-11-17T19:33:18.821Z,3.20
2017-11-17T19:35:46.320Z,3.20
2017-11-17T19:38:13.797Z,3.20
2017-11-17T19:40:41.289Z,3.10
2017-11-17T19:43:09.577Z,2.90
2017-11-17T19:45:37.835Z,2.80
2017-11-17T19:48:05.322Z,2.80
2017-11-17T19:50:33.620Z,2.70
2017-11-17T19:53:01.867Z,2.60
2017-11-17T19:55:29.418Z,2.60
2017-11-17T19:57:56.921Z,2.70
2017-11-17T20:00:24.414Z,2.70
2017-11-17T20:02:51.909Z,2.80
2017-11-17T20:05:19.444Z,2.90
2017-11-17T20:07:46.927Z,2.90
2017-11-17T20:10:14.428Z,3.00
2017-11-17T20:12:43.305Z,2.80
2017-11-17T20:15:10.811Z,2.70
2017-11-17T20:17:38.292Z,2.70
2017-11-17T20:20:05.862Z,2.70
2017-11-17T20:22:33.353Z,2.70
2017-11-17T20:25:00.834Z,2.80
2017-11-17T20:27:28.369Z,2.80
2017-11-17T20:29:55.856Z,2.80
2017-11-17T20:32:23.346Z,2.70
2017-11-17T20:34:50.875Z,2.70
2017-11-17T20:37:18.357Z,2.70
2017-11-17T20:39:45.837Z,2.70
2017-11-17T20:42:13.344Z,2.60
2017-11-17T20:44:40.824Z,2.60
2017-11-17T20:47:09.073Z,2.50
2017-11-17T20:49:36.590Z,2.50
2017-11-17T20:52:04.866Z,2.50
2017-11-17T20:54:33.183Z,2.50
2017-11-17T20:57:00.714Z,2.40
2017-11-17T20:59:28.199Z,2.30
2017-11-17T21:01:55.677Z,2.30
2017-11-17T21:04:24.097Z,2.40
2017-11-17T21:06:51.577Z,2.40
2017-11-17T21:09:19.057Z,2.40
2017-11-17T21:11:46.560Z,2.50
2017-11-17T21:14:14.041Z,2.50
2017-11-17T21:16:41.514Z,2.60
2017-11-17T21:19:09.801Z,2.60
2017-11-17T21:21:38.058Z,2.50
2017-11-17T21:24:05.541Z,2.50
2017-11-17T21:26:33.045Z,2.60
2017-11-17T21:29:01.306Z,2.50
2017-11-17T21:31:28.798Z,2.50
2017-11-17T21:33:57.124Z,2.60
2017-11-17T21:36:24.623Z,2.50
2017-11-17T21:38:53.797Z,2.60
2017-11-17T21:41:21.314Z,2.50
2017-11-17T21:43:48.801Z,2.60
2017-11-17T21:46:16.278Z,2.50
2017-11-17T21:48:44.541Z,2.70
2017-11-17T21:51:12.021Z,2.60
2017-11-17T21:53:39.509Z,2.70
2017-11-17T21:56:07.780Z,2.60
2017-11-17T21:58:35.264Z,2.60
2017-11-17T22:01:03.515Z,2.60
2017-11-17T22:03:31.017Z,2.60
2017-11-17T22:05:59.274Z,2.60
2017-11-17T22:08:26.749Z,2.60
2017-11-17T22:10:54.269Z,2.60
2017-11-17T22:13:22.980Z,2.40
2017-11-17T22:15:50.464Z,2.40
2017-11-17T22:18:17.966Z,2.40
2017-11-17T22:20:45.495Z,2.40
2017-11-17T22:23:12.972Z,2.40
2017-11-17T22:25:40.581Z,2.40
2017-11-17T22:28:08.067Z,2.40
2017-11-17T22:30:35.545Z,2.40
2017-11-17T22:33:03.087Z,2.30
2017-11-17T22:35:30.586Z,2.30
2017-11-17T22:37:58.062Z,2.30
2017-11-17T22:40:26.329Z,2.40
2017-11-17T22:42:53.834Z,2.40
2017-11-17T22:45:22.089Z,2.30
2017-11-17T22:47:49.602Z,2.30
2017-11-17T22:50:17.104Z,2.30
2017-11-17T22:52:44.573Z,2.30
2017-11-17T22:55:12.065Z,2.30
2017-11-17T22:57:39.572Z,2.50
2017-11-17T23:00:07.834Z,2.70
2017-11-17T23:02:35.328Z,2.70
2017-11-17T23:05:03.589Z,2.30
2017-11-17T23:07:31.081Z,2.30
2017-11-17T23:09:59.350Z,2.50
2017-11-17T23:12:26.832Z,2.50
2017-11-17T23:14:54.309Z,2.50
2017-11-17T23:17:22.628Z,2.40
2017-11-17T23:19:50.109Z,2.30
2017-11-17T23:22:17.587Z,2.30
2017-11-17T23:24:45.097Z,2.30
2017-11-17T23:27:12.585Z,2.30
2017-11-17T23:29:40.081Z,2.40
2017-11-17T23:32:07.584Z,2.40
2017-11-17T23:34:35.077Z,2.60
2017-11-17T23:37:02.572Z,2.60
2017-11-17T23:39:30.849Z,2.60
2017-11-17T23:41:58.329Z,2.60
2017-11-17T23:44:26.616Z,2.70
2017-11-17T23:46:54.999Z,2.60
2017-11-17T23:49:22.530Z,2.60
2017-11-17T23:51:50.787Z,2.60
2017-11-17T23:54:18.305Z,2.60
2017-11-17T23:56:45.785Z,2.50
2017-11-17T23:59:13.272Z,2.40
